createdAt,value
2023-12-26T00:01:28.332Z,97751.94
2023-12-26T00:04:01.629Z,97728.56
2023-12-26T00:06:30.797Z,97737.00
2023-12-26T00:09:02.268Z,97742.00
2023-12-26T00:11:31.826Z,97729.97
2023-12-26T00:14:02.630Z,97724.50
2023-12-26T00:16:35.003Z,97719.75
2023-12-26T00:19:08.800Z,97723.28
2023-12-26T00:21:39.101Z,97726.34
2023-12-26T00:24:12.515Z,97723.53
2023-12-26T00:26:46.016Z,97719.56
2023-12-26T00:29:18.612Z,97722.72
2023-12-26T00:31:46.934Z,97711.59
2023-12-26T00:34:16.324Z,97714.84
2023-12-26T00:36:44.483Z,97712.34
2023-12-26T00:39:15.760Z,97714.84
2023-12-26T00:41:52.148Z,97717.00
2023-12-26T00:44:27.011Z,97714.84
2023-12-26T00:46:57.913Z,97711.56
2023-12-26T00:49:24.814Z,97713.94
2023-12-26T00:51:56.577Z,97718.50
2023-12-26T00:54:28.235Z,97713.94
2023-12-26T00:57:02.127Z,97713.75
2023-12-26T00:59:31.588Z,97715.31
2023-12-26T01:02:09.267Z,97714.63
2023-12-26T01:04:41.320Z,97708.41
2023-12-26T01:07:10.839Z,97712.59
2023-12-26T01:09:45.329Z,97716.91
2023-12-26T01:12:17.743Z,97722.81
2023-12-26T01:14:57.539Z,97721.66
2023-12-26T01:17:26.963Z,97735.63
2023-12-26T01:20:04.231Z,97729.84
2023-12-26T01:22:36.845Z,97731.75
2023-12-26T01:25:07.424Z,97736.41
2023-12-26T01:30:22.012Z,97742.31
2023-12-26T01:35:38.075Z,97734.59
2023-12-26T01:38:16.380Z,97737.31
2023-12-26T01:40:48.772Z,97737.91
2023-12-26T01:43:24.343Z,97738.16
2023-12-26T01:45:59.282Z,97741.78
2023-12-26T01:48:31.926Z,97747.22
2023-12-26T01:51:03.531Z,97744.84
2023-12-26T01:53:35.501Z,97757.31
2023-12-26T01:56:05.996Z,97743.81
2023-12-26T01:58:41.893Z,97737.00
2023-12-26T02:01:13.341Z,97749.41
2023-12-26T02:03:44.475Z,97747.03
2023-12-26T02:06:14.647Z,97750.22
2023-12-26T02:08:49.661Z,97749.41
2023-12-26T02:11:20.371Z,97737.47
2023-12-26T02:13:51.528Z,97734.63
2023-12-26T02:16:27.636Z,97719.00
2023-12-26T02:19:01.948Z,97725.59
2023-12-26T02:21:32.608Z,97719.69
2023-12-26T02:24:04.301Z,97729.81
2023-12-26T02:26:44.993Z,97718.13
2023-12-26T02:29:24.662Z,97721.53
2023-12-26T02:34:40.613Z,97726.44
2023-12-26T02:37:11.454Z,97730.38
2023-12-26T02:39:46.425Z,97722.66
2023-12-26T02:42:21.739Z,97732.66
2023-12-26T02:45:03.192Z,97734.94
2023-12-26T02:47:32.492Z,97742.69
2023-12-26T02:52:52.979Z,97747.22
2023-12-26T02:55:25.630Z,97743.38
2023-12-26T02:57:54.338Z,97749.50
2023-12-26T03:00:24.280Z,97736.34
2023-12-26T03:02:55.380Z,97736.22
2023-12-26T03:05:45.410Z,97735.78
2023-12-26T03:11:23.930Z,97723.56
2023-12-26T03:13:52.125Z,97740.66
2023-12-26T03:16:24.062Z,97738.22
2023-12-26T03:19:04.938Z,97747.97
2023-12-26T03:21:35.327Z,97728.00
2023-12-26T03:24:03.532Z,97748.88
2023-12-26T03:26:33.658Z,97755.78
2023-12-26T03:29:01.797Z,97741.84
2023-12-26T03:31:29.889Z,97759.75
2023-12-26T03:34:01.622Z,97758.63
2023-12-26T03:36:30.867Z,97760.44
2023-12-26T03:38:58.878Z,97776.78
2023-12-26T03:41:27.022Z,97774.06
2023-12-26T03:43:57.809Z,97772.03
2023-12-26T03:46:28.840Z,97779.03
2023-12-26T03:49:00.394Z,97790.38
2023-12-26T03:51:28.779Z,97795.81
2023-12-26T03:53:57.376Z,97798.53
2023-12-26T03:56:25.654Z,97789.06
2023-12-26T03:58:54.977Z,97789.94
2023-12-26T04:01:27.023Z,97783.72
2023-12-26T04:03:56.267Z,97805.03
2023-12-26T04:06:25.443Z,97789.94
2023-12-26T04:08:54.100Z,97784.06
2023-12-26T04:11:24.489Z,97802.09
2023-12-26T04:13:55.055Z,97809.00
2023-12-26T04:16:24.700Z,97805.16
2023-12-26T04:18:52.606Z,97789.72
2023-12-26T04:21:22.230Z,97809.91
2023-12-26T04:23:50.113Z,97787.47
2023-12-26T04:26:21.225Z,97803.78
2023-12-26T04:28:51.293Z,97800.72
2023-12-26T04:31:19.529Z,97802.31
2023-12-26T04:33:50.638Z,97794.94
2023-12-26T04:36:19.316Z,97790.72
2023-12-26T04:38:47.283Z,97796.97
2023-12-26T04:41:15.470Z,97786.06
2023-12-26T04:43:44.101Z,97805.69
2023-12-26T04:46:21.749Z,97801.72
2023-12-26T04:48:51.263Z,97802.63
2023-12-26T04:51:20.741Z,97805.69
2023-12-26T04:53:50.001Z,97797.19
2023-12-26T04:56:19.269Z,97798.78
2023-12-26T04:58:49.510Z,97794.00
2023-12-26T05:01:19.744Z,97789.47
2023-12-26T05:03:48.578Z,97787.88
2023-12-26T05:06:21.745Z,97789.47
2023-12-26T05:08:50.118Z,97796.50
2023-12-26T05:11:25.118Z,97782.44
2023-12-26T05:13:53.508Z,97755.22
2023-12-26T05:16:21.515Z,97782.44
2023-12-26T05:18:50.079Z,97777.00
2023-12-26T05:21:24.169Z,97769.97
2023-12-26T05:23:52.549Z,97768.38
2023-12-26T05:26:25.030Z,97771.34
2023-12-26T05:28:53.435Z,97777.47
2023-12-26T05:31:22.073Z,97774.31
2023-12-26T05:33:50.061Z,97778.84
2023-12-26T05:36:18.802Z,97772.72
2023-12-26T05:38:48.493Z,97772.72
2023-12-26T05:41:20.805Z,97778.16
2023-12-26T05:43:49.569Z,97778.63
2023-12-26T05:46:19.210Z,97779.75
2023-12-26T05:48:48.120Z,97780.44
2023-12-26T05:51:16.674Z,97781.13
2023-12-26T05:53:45.170Z,97779.28
2023-12-26T05:56:14.991Z,97795.28
2023-12-26T05:58:44.049Z,97795.16
2023-12-26T06:01:12.111Z,97787.00
2023-12-26T06:03:43.687Z,97799.94
2023-12-26T06:06:13.732Z,97800.03
2023-12-26T06:08:42.810Z,97804.69
2023-12-26T06:11:11.650Z,97798.34
2023-12-26T06:13:43.096Z,97790.63
2023-12-26T06:16:12.516Z,97800.72
2023-12-26T06:18:42.753Z,97815.13
2023-12-26T06:21:10.979Z,97793.34
2023-12-26T06:23:41.070Z,97803.78
2023-12-26T06:26:11.171Z,97804.13
2023-12-26T06:28:40.613Z,97801.28
2023-12-26T06:31:15.311Z,97818.53
2023-12-26T06:33:43.755Z,97822.38
2023-12-26T06:36:19.765Z,97827.81
2023-12-26T06:39:04.999Z,97816.25
2023-12-26T06:41:39.755Z,97817.59
2023-12-26T06:44:16.271Z,97826.66
2023-12-26T06:46:49.770Z,97820.44
2023-12-26T06:49:20.287Z,97830.53
2023-12-26T06:51:52.964Z,97826.22
2023-12-26T06:54:21.771Z,97824.41
2023-12-26T06:56:51.194Z,97840.72
2023-12-26T06:59:23.879Z,97839.13
2023-12-26T07:01:56.405Z,97839.25
2023-12-26T07:04:26.288Z,97840.03
2023-12-26T07:07:01.403Z,97823.38
2023-12-26T07:09:30.475Z,97847.06
2023-12-26T07:12:00.145Z,97840.97
2023-12-26T07:14:34.829Z,97854.97
2023-12-26T07:17:05.995Z,97851.13
2023-12-26T07:19:37.103Z,97875.75
2023-12-26T07:22:08.137Z,97866.00
2023-12-26T07:24:39.428Z,97876.31
2023-12-26T07:27:07.751Z,97893.31
2023-12-26T07:29:38.238Z,97892.75
2023-12-26T07:32:08.815Z,97904.91
2023-12-26T07:34:43.079Z,97916.94
2023-12-26T07:37:14.593Z,97918.06
2023-12-26T07:39:42.576Z,97917.72
2023-12-26T07:42:11.410Z,97939.59
2023-12-26T07:44:43.377Z,97939.59
2023-12-26T07:47:12.549Z,97947.75
2023-12-26T07:49:40.585Z,97955.94
2023-12-26T07:52:09.334Z,97954.78
2023-12-26T07:54:37.253Z,97938.91
2023-12-26T07:57:06.836Z,97952.75
2023-12-26T07:59:35.117Z,97960.69
2023-12-26T08:02:04.729Z,97966.81
2023-12-26T08:04:32.628Z,97972.50
2023-12-26T08:07:01.245Z,97976.34
2023-12-26T08:09:30.907Z,97976.34
2023-12-26T08:11:58.973Z,97977.50
2023-12-26T08:14:27.110Z,97976.47
2023-12-26T08:16:54.912Z,97975.69
2023-12-26T08:19:24.358Z,97982.94
2023-12-26T08:21:52.507Z,97988.03
2023-12-26T08:24:20.340Z,97987.94
2023-12-26T08:26:48.204Z,97997.22
2023-12-26T08:29:15.951Z,97977.81
2023-12-26T08:31:43.800Z,98006.66
2023-12-26T08:34:11.719Z,98000.28
2023-12-26T08:36:41.041Z,98007.66
2023-12-26T08:39:09.256Z,98002.66
2023-12-26T08:41:37.199Z,98004.06
2023-12-26T08:44:05.231Z,97995.44
2023-12-26T08:46:33.172Z,98002.22
2023-12-26T08:49:01.511Z,98005.94
2023-12-26T08:51:29.551Z,98014.25
2023-12-26T08:53:58.790Z,98005.41
2023-12-26T08:56:26.637Z,98011.63
2023-12-26T08:58:54.636Z,98020.81
2023-12-26T09:01:22.559Z,98007.66
2023-12-26T09:03:50.739Z,98023.53
2023-12-26T09:06:18.875Z,98034.00
2023-12-26T09:08:46.815Z,98032.88
2023-12-26T09:11:16.121Z,98033.53
2023-12-26T09:13:47.609Z,98045.91
2023-12-26T09:16:15.954Z,98052.59
2023-12-26T09:18:44.540Z,98058.59
2023-12-26T09:21:12.963Z,98068.28
2023-12-26T09:23:40.942Z,98074.63
2023-12-26T09:26:09.185Z,98078.25
2023-12-26T09:28:40.304Z,98077.34
2023-12-26T09:31:08.525Z,98092.78
2023-12-26T09:33:36.543Z,98089.72
2023-12-26T09:36:04.814Z,98082.22
2023-12-26T09:38:33.011Z,98066.91
2023-12-26T09:41:01.265Z,98091.66
2023-12-26T09:43:29.732Z,98082.34
2023-12-26T09:45:59.057Z,98104.25
2023-12-26T09:48:27.419Z,98105.81
2023-12-26T09:50:57.019Z,98113.19
2023-12-26T09:53:26.102Z,98108.22
2023-12-26T09:55:55.033Z,98098.00
2023-12-26T09:58:23.546Z,98110.59
2023-12-26T10:00:52.429Z,98115.91
2023-12-26T10:03:22.310Z,98117.31
2023-12-26T10:05:55.204Z,98110.72
2023-12-26T10:08:23.493Z,98110.72
2023-12-26T10:10:51.754Z,98125.47
2023-12-26T10:13:19.623Z,98123.88
2023-12-26T10:15:47.661Z,98140.34
2023-12-26T10:18:15.960Z,98137.28
2023-12-26T10:20:45.380Z,98137.41
2023-12-26T10:23:14.231Z,98124.91
2023-12-26T10:25:44.856Z,98138.22
2023-12-26T10:28:17.509Z,98139.81
2023-12-26T10:30:45.498Z,98147.06
2023-12-26T10:33:13.937Z,98135.81
2023-12-26T10:35:41.975Z,98143.66
2023-12-26T10:38:12.787Z,98139.09
2023-12-26T10:40:40.647Z,98137.53
2023-12-26T10:43:08.900Z,98133.09
2023-12-26T10:45:36.797Z,98130.03
2023-12-26T10:48:07.062Z,98142.78
2023-12-26T10:50:35.215Z,98141.38
2023-12-26T10:53:17.422Z,98114.25
2023-12-26T10:55:47.773Z,98136.63
2023-12-26T10:58:20.622Z,98130.50
2023-12-26T11:00:53.263Z,98128.69
2023-12-26T11:04:16.029Z,98141.19
2023-12-26T11:07:38.712Z,98120.59
2023-12-26T11:11:01.584Z,98142.53
2023-12-26T11:14:24.469Z,98144.78
2023-12-26T11:17:47.994Z,98148.66
2023-12-26T11:21:11.070Z,98161.00
2023-12-26T11:24:33.959Z,98162.28
2023-12-26T11:27:56.913Z,98167.50
2023-12-26T11:31:19.817Z,98175.34
2023-12-26T11:34:43.118Z,98176.38
2023-12-26T11:38:06.162Z,98159.78
2023-12-26T11:41:29.354Z,98161.16
2023-12-26T11:44:52.358Z,98171.81
2023-12-26T11:48:15.523Z,98161.47
2023-12-26T11:51:38.761Z,98167.72
2023-12-26T11:55:01.475Z,98174.22
2023-12-26T11:58:23.978Z,98167.50
2023-12-26T12:01:46.609Z,98177.16
2023-12-26T12:05:09.379Z,98177.28
2023-12-26T12:08:32.572Z,98181.94
2023-12-26T12:11:55.166Z,98188.63
2023-12-26T12:15:18.252Z,98187.03
2023-12-26T12:18:41.273Z,98175.91
2023-12-26T12:22:04.350Z,98182.25
2023-12-26T12:25:26.852Z,98184.53
2023-12-26T12:28:49.782Z,98177.00
2023-12-26T12:32:12.759Z,98179.28
2023-12-26T12:35:35.620Z,98183.81
2023-12-26T12:38:58.593Z,98171.56
2023-12-26T12:42:21.632Z,98174.19
2023-12-26T12:45:44.456Z,98175.69
2023-12-26T12:49:07.770Z,98151.38
2023-12-26T12:52:31.218Z,98162.25
2023-12-26T12:55:54.357Z,98159.75
2023-12-26T12:59:17.370Z,98160.41
2023-12-26T13:02:40.419Z,98177.69
2023-12-26T13:06:03.427Z,98191.50
2023-12-26T13:09:25.948Z,98200.16
2023-12-26T13:12:49.181Z,98210.56
2023-12-26T13:16:11.986Z,98195.38
2023-12-26T13:19:35.723Z,98203.06
2023-12-26T13:22:58.950Z,98192.44
2023-12-26T13:26:21.939Z,98194.69
2023-12-26T13:29:44.824Z,98199.22
2023-12-26T13:33:07.980Z,98201.50
2023-12-26T13:36:30.969Z,98189.03
2023-12-26T13:39:53.994Z,98204.44
2023-12-26T13:43:16.800Z,98198.88
2023-12-26T13:46:39.742Z,98198.53
2023-12-26T13:50:02.462Z,98193.88
2023-12-26T13:52:32.137Z,98218.91
2023-12-26T13:54:58.968Z,98204.19
2023-12-26T13:57:27.008Z,98222.13
2023-12-26T13:59:56.338Z,98224.84
2023-12-26T14:02:23.532Z,98229.94
2023-12-26T14:05:28.808Z,98213.38
2023-12-26T14:08:34.042Z,98218.69
2023-12-26T14:11:39.313Z,98220.75
2023-12-26T14:14:44.454Z,98235.81
2023-12-26T14:17:49.517Z,98237.88
2023-12-26T14:20:54.773Z,98243.53
2023-12-26T14:24:00.021Z,98257.00
2023-12-26T14:27:07.274Z,98256.53
2023-12-26T14:30:12.621Z,98258.25
2023-12-26T14:33:21.170Z,98255.69
2023-12-26T14:36:26.738Z,98269.94
2023-12-26T14:39:32.076Z,98263.56
2023-12-26T14:42:37.418Z,98275.88
2023-12-26T14:45:42.285Z,98276.94
2023-12-26T14:48:47.382Z,98284.16
2023-12-26T14:51:52.425Z,98285.78
2023-12-26T14:54:57.627Z,98289.53
2023-12-26T14:58:02.672Z,98290.38
2023-12-26T15:01:07.956Z,98302.56
2023-12-26T15:03:43.358Z,98309.78
2023-12-26T15:06:18.874Z,98316.81
2023-12-26T15:08:46.843Z,98315.22
2023-12-26T15:11:17.748Z,98313.44
2023-12-26T15:13:52.201Z,98321.94
2023-12-26T15:16:28.741Z,98316.16
2023-12-26T15:18:59.355Z,98307.53
2023-12-26T15:21:27.445Z,98320.97
2023-12-26T15:23:57.039Z,98327.84
2023-12-26T15:26:24.925Z,98319.38
2023-12-26T15:28:52.949Z,98316.16
2023-12-26T15:31:22.298Z,98306.09
2023-12-26T15:33:51.496Z,98317.13
2023-12-26T15:36:22.049Z,98319.84
2023-12-26T15:38:50.735Z,98308.09
2023-12-26T15:41:20.158Z,98304.91
2023-12-26T15:43:48.120Z,98322.81
2023-12-26T15:46:18.280Z,98318.97
2023-12-26T15:48:46.426Z,98324.56
2023-12-26T15:51:15.185Z,98318.47
2023-12-26T15:53:45.524Z,98318.63
2023-12-26T15:56:14.325Z,98338.13
2023-12-26T15:58:42.959Z,98347.25
2023-12-26T16:01:11.707Z,98345.31
2023-12-26T16:03:39.739Z,98353.81
2023-12-26T16:06:09.157Z,98354.09
2023-12-26T16:08:38.476Z,98357.31
2023-12-26T16:11:10.908Z,98365.00
2023-12-26T16:13:38.964Z,98365.78
2023-12-26T16:16:07.263Z,98368.84
2023-12-26T16:18:36.368Z,98376.69
2023-12-26T16:21:04.725Z,98379.41
2023-12-26T16:23:32.749Z,98388.34
2023-12-26T16:26:00.727Z,98378.91
2023-12-26T16:28:29.913Z,98389.00
2023-12-26T16:31:00.052Z,98377.97
2023-12-26T16:33:28.677Z,98388.06
2023-12-26T16:35:58.028Z,98389.00
2023-12-26T16:38:26.117Z,98410.94
2023-12-26T16:40:56.413Z,98399.94
2023-12-26T16:43:24.560Z,98405.53
2023-12-26T16:45:53.751Z,98402.50
2023-12-26T16:48:22.247Z,98410.31
2023-12-26T16:50:50.641Z,98398.66
2023-12-26T16:53:18.882Z,98397.34
2023-12-26T16:55:46.923Z,98400.41
2023-12-26T16:58:15.042Z,98406.34
2023-12-26T17:00:43.094Z,98408.41
2023-12-26T17:03:12.638Z,98424.91
2023-12-26T17:05:41.101Z,98422.81
2023-12-26T17:08:09.198Z,98427.16
2023-12-26T17:10:37.462Z,98421.06
2023-12-26T17:13:05.789Z,98425.38
2023-12-26T17:15:33.709Z,98419.31
2023-12-26T17:18:01.718Z,98411.94
2023-12-26T17:20:31.705Z,98415.31
2023-12-26T17:22:59.956Z,98411.47
2023-12-26T17:25:27.931Z,98414.19
2023-12-26T17:27:56.280Z,98406.03
2023-12-26T17:30:24.454Z,98417.56
2023-12-26T17:32:52.672Z,98420.75
2023-12-26T17:35:20.988Z,98429.06
2023-12-26T17:37:50.229Z,98435.78
2023-12-26T17:40:18.154Z,98435.78
2023-12-26T17:42:46.401Z,98438.66
2023-12-26T17:45:14.606Z,98450.19
2023-12-26T17:47:42.823Z,98447.94
2023-12-26T17:50:11.812Z,98450.88
2023-12-26T17:52:39.995Z,98454.72
2023-12-26T17:55:10.773Z,98466.25
2023-12-26T17:57:38.917Z,98456.47
2023-12-26T18:00:08.484Z,98462.41
2023-12-26T18:02:36.554Z,98459.84
2023-12-26T18:05:05.534Z,98462.41
2023-12-26T18:07:35.019Z,98458.56
2023-12-26T18:10:03.513Z,98468.31
2023-12-26T18:12:32.874Z,98476.44
2023-12-26T18:15:01.024Z,98475.03
2023-12-26T18:17:29.281Z,98487.03
2023-12-26T18:19:57.461Z,98490.69
2023-12-26T18:22:25.963Z,98493.72
2023-12-26T18:24:55.369Z,98496.44
2023-12-26T18:27:24.280Z,98502.34
2023-12-26T18:29:54.900Z,98510.34
2023-12-26T18:32:23.096Z,98501.72
2023-12-26T18:34:51.119Z,98512.75
2023-12-26T18:37:19.112Z,98502.06
2023-12-26T18:39:48.251Z,98507.34
2023-12-26T18:42:16.276Z,98511.66
2023-12-26T18:44:46.622Z,98514.88
2023-12-26T18:47:16.131Z,98514.22
2023-12-26T18:49:44.122Z,98531.50
2023-12-26T18:52:12.577Z,98519.03
2023-12-26T18:54:41.582Z,98531.84
2023-12-26T18:57:09.781Z,98537.91
2023-12-26T18:59:37.688Z,98525.13
2023-12-26T19:02:06.762Z,98539.84
2023-12-26T19:04:36.574Z,98542.56
2023-12-26T19:07:05.845Z,98545.91
2023-12-26T19:09:34.511Z,98545.28
2023-12-26T19:12:06.439Z,98543.66
2023-12-26T19:14:34.848Z,98549.09
2023-12-26T19:17:03.912Z,98548.94
2023-12-26T19:19:32.062Z,98556.66
2023-12-26T19:22:01.379Z,98561.28
2023-12-26T19:24:29.465Z,98553.59
2023-12-26T19:26:58.458Z,98551.34
2023-12-26T19:29:26.805Z,98549.75
2023-12-26T19:31:54.784Z,98548.16
2023-12-26T19:34:22.832Z,98543.38
2023-12-26T19:36:50.941Z,98548.81
2023-12-26T19:39:20.417Z,98544.97
2023-12-26T19:41:48.928Z,98555.53
2023-12-26T19:44:18.589Z,98560.16
2023-12-26T19:46:46.711Z,98548.63
2023-12-26T19:49:15.022Z,98551.84
2023-12-26T19:51:45.098Z,98547.53
2023-12-26T19:54:13.119Z,98550.41
2023-12-26T19:56:43.241Z,98561.94
2023-12-26T19:59:13.957Z,98563.53
2023-12-26T20:01:43.191Z,98551.97
2023-12-26T20:04:12.022Z,98553.44
2023-12-26T20:06:46.310Z,98550.09
2023-12-26T20:09:21.019Z,98549.91
2023-12-26T20:11:51.222Z,98558.72
2023-12-26T20:14:23.267Z,98550.88
2023-12-26T20:16:52.297Z,98537.94
2023-12-26T20:19:27.269Z,98539.53
2023-12-26T20:21:56.366Z,98544.97
2023-12-26T20:24:28.540Z,98549.28
2023-12-26T20:26:59.390Z,98553.28
2023-12-26T20:29:28.624Z,98566.41
2023-12-26T20:31:58.630Z,98566.56
2023-12-26T20:34:27.915Z,98567.38
2023-12-26T20:37:00.432Z,98572.16
2023-12-26T20:39:30.230Z,98581.44
2023-12-26T20:42:03.245Z,98586.41
2023-12-26T20:44:31.348Z,98590.72
2023-12-26T20:49:49.166Z,98609.56
2023-12-26T20:52:17.502Z,98615.00
2023-12-26T20:54:47.288Z,98617.91
2023-12-26T20:57:17.662Z,98615.31
2023-12-26T20:59:46.698Z,98612.59
2023-12-26T21:02:17.050Z,98620.94
2023-12-26T21:04:45.386Z,98617.91
2023-12-26T21:07:16.463Z,98628.59
2023-12-26T21:09:45.699Z,98628.78
2023-12-26T21:12:15.413Z,98635.16
2023-12-26T21:14:44.780Z,98634.84
2023-12-26T21:17:13.197Z,98649.06
2023-12-26T21:19:44.206Z,98650.00
2023-12-26T21:22:12.951Z,98642.81
2023-12-26T21:24:43.139Z,98645.06
2023-12-26T21:27:13.053Z,98637.38
2023-12-26T21:29:41.702Z,98652.09
2023-12-26T21:32:24.846Z,98648.09
2023-12-26T21:34:55.762Z,98650.31
2023-12-26T21:37:23.989Z,98657.66
2023-12-26T21:39:53.213Z,98663.91
2023-12-26T21:42:22.578Z,98671.56
2023-12-26T21:44:56.001Z,98675.22
2023-12-26T21:47:26.669Z,98681.78
2023-12-26T21:50:00.816Z,98692.03
2023-12-26T21:52:34.074Z,98692.31
2023-12-26T21:55:02.499Z,98705.41
2023-12-26T21:57:31.391Z,98710.47
2023-12-26T22:00:02.365Z,98705.22
2023-12-26T22:02:32.217Z,98710.16
2023-12-26T22:05:03.932Z,98697.69
2023-12-26T22:07:35.808Z,98693.06
2023-12-26T22:10:13.910Z,98691.25
2023-12-26T22:12:43.784Z,98677.81
2023-12-26T22:15:20.901Z,98689.94
2023-12-26T22:17:56.252Z,98696.97
2023-12-26T22:20:28.270Z,98695.84
2023-12-26T22:22:59.490Z,98687.69
2023-12-26T22:25:32.632Z,98703.97
2023-12-26T22:28:03.552Z,98705.75
2023-12-26T22:30:34.475Z,98709.16
2023-12-26T22:33:07.428Z,98714.59
2023-12-26T22:35:40.749Z,98722.56
2023-12-26T22:38:12.859Z,98719.22
2023-12-26T22:40:45.733Z,98722.63
2023-12-26T22:43:22.737Z,98730.53
2023-12-26T22:45:52.685Z,98735.34
2023-12-26T22:48:22.617Z,98729.81
2023-12-26T22:50:58.040Z,98729.00
2023-12-26T22:53:30.421Z,98739.38
2023-12-26T22:56:04.541Z,98733.47
2023-12-26T22:58:34.220Z,98729.50
2023-12-26T23:01:05.297Z,98728.06
2023-12-26T23:03:40.601Z,98738.06
2023-12-26T23:06:11.042Z,98737.31
2023-12-26T23:08:41.954Z,98737.56
2023-12-26T23:11:20.491Z,98744.59
2023-12-26T23:13:50.653Z,98748.31
2023-12-26T23:16:23.399Z,98756.06
2023-12-26T23:19:00.112Z,98752.44
2023-12-26T23:21:31.637Z,98752.25
2023-12-26T23:24:04.954Z,98755.69
2023-12-26T23:26:42.205Z,98757.78
2023-12-26T23:29:15.463Z,98745.81
2023-12-26T23:31:47.326Z,98756.31
2023-12-26T23:34:30.352Z,98748.34
2023-12-26T23:37:08.711Z,98749.13
2023-12-26T23:39:37.365Z,98758.41
2023-12-26T23:42:08.108Z,98761.00
2023-12-26T23:44:39.213Z,98760.81
2023-12-26T23:47:08.580Z,98756.19
2023-12-26T23:49:38.601Z,98768.03
2023-12-26T23:52:11.205Z,98764.81
2023-12-26T23:54:43.326Z,98765.94
2023-12-26T23:57:11.392Z,98768.66
2023-12-26T23:59:45.369Z,98765.81
